Bei Facebook empfehlenBei Twitter postenGoogle plusPinterest

Das Wetter im Erzgebirge am 27.10.2016

Wetter und Klima am 27.10.2016 Holzhau im Erzgebirge (630m ü.NN)
Letzte gemessene Temperatur und Uhrzeit der Messung23:45:00 Uhr7.80 °C
Temperatur (Maximum / Höchstwert) und Uhrzeit der Messung13:45:00 Uhr8.80 °C
Temperatur (Minimum / Tiefstwert) und Uhrzeit der Messung07:00:003.50 °C
Errechneter Absolutwert der Temperaturschwankungen zwischen Tmin und Tmax des Tages5.30 K
Errechnete Tagesmitteltemperatur6.36146 °C
Gesamt - Niederschlag des Tages (in flüssiger Form)0.00 Liter / m²
Luftdruck (Maximum / Höchstwert) und Zeitpunkt der Messung22:15:00 Uhr1028.40 hPa
Luftdruck (Minimum / Tiefstwert) und Zeitpunkt der Messung04:00:00 Uhr1023.80 hPa
Errechneter Absolutwert der Luftdruckschwankungen des Tages4.60 hPa
Höchste gemessene Windgeschwindigkeit und Uhrzeit der Messung23:45:00 Uhr0.00 km/h
Errechnete Windhäufigkeit in Relation zu den Messwerten des Tages0.00000 %
Niedrigste Windkühle (Windchill) und Zeitpunkt der Messung07:00:00 Uhr3.50 °C
Taupunkt (Maximum / Höchstwert) und Uhrzeit der Messung13:45:00 Uhr7.60 °C
Taupunkt (Minimum / Tiefstwert) und Uhrzeit der Messung07:00:002.90 °C
Anzahl der automatisch eingelesenen Messwerte 96

Detaillierte Wetter- und Klima- Messwerte für den 27.10.2016 in Holzhau im Erzgebirge (630m ü.NN)
ZeitTemperaturLuftdruckRel. LuftfeuchteWindWindrichtungWindchillTaupunktNiederschlag l/m²
23:45:007.80 °C1028.10 hPa96.00 %7.20 °C 
23:30:007.90 °C1028.00 hPa96.00 %7.30 °C 
23:15:007.90 °C1028.00 hPa96.00 %7.30 °C 
23:00:007.90 °C1028.20 hPa96.00 %7.30 °C 
22:45:007.90 °C1028.30 hPa96.00 %7.30 °C 
22:30:007.90 °C1028.20 hPa96.00 %7.30 °C 
22:15:007.90 °C1028.40 hPa96.00 %7.30 °C 
22:00:008.10 °C1028.40 hPa96.00 %7.50 °C 
21:45:008.10 °C1028.20 hPa96.00 %7.50 °C 
21:30:008.10 °C1028.10 hPa96.00 %7.50 °C 
21:15:008.10 °C1028.10 hPa96.00 %7.50 °C 
21:00:008.10 °C1028.10 hPa96.00 %7.50 °C 
20:45:008.10 °C1027.90 hPa96.00 %7.50 °C 
20:30:008.00 °C1027.80 hPa96.00 %7.40 °C 
20:15:007.90 °C1027.70 hPa95.00 %7.10 °C 
20:00:007.90 °C1027.80 hPa95.00 %7.10 °C 
19:45:007.80 °C1027.80 hPa95.00 %7.10 °C 
19:30:007.80 °C1027.80 hPa95.00 %7.10 °C 
19:15:007.70 °C1027.80 hPa95.00 %7.00 °C 
19:00:007.70 °C1027.60 hPa95.00 %7.00 °C 
18:45:007.60 °C1027.60 hPa95.00 %6.90 °C 
18:30:007.60 °C1027.20 hPa95.00 %6.90 °C 
18:15:007.50 °C1027.30 hPa95.00 %6.80 °C 
18:00:007.50 °C1027.20 hPa95.00 %6.80 °C 
17:45:007.40 °C1027.20 hPa95.00 %6.70 °C 
17:30:007.40 °C1027.20 hPa95.00 %6.70 °C 
17:15:007.40 °C1027.00 hPa94.00 %6.50 °C 
17:00:007.40 °C1027.20 hPa94.00 %6.50 °C 
16:45:007.40 °C1027.00 hPa94.00 %6.50 °C 
16:30:007.40 °C1026.90 hPa94.00 %6.50 °C 
16:15:007.50 °C1026.90 hPa94.00 %6.60 °C 
16:00:007.60 °C1026.90 hPa94.00 %6.70 °C 
15:45:007.80 °C1027.00 hPa94.00 %6.90 °C 
15:30:007.80 °C1026.90 hPa93.00 %6.70 °C 
15:15:007.90 °C1026.70 hPa93.00 %6.80 °C 
15:00:007.80 °C1026.80 hPa93.00 %6.70 °C 
14:45:007.70 °C1026.90 hPa93.00 %6.60 °C 
14:30:007.80 °C1026.90 hPa92.00 %6.60 °C 
14:15:008.10 °C1026.90 hPa92.00 %6.90 °C 
14:00:008.40 °C1026.90 hPa92.00 %7.20 °C 
13:45:008.80 °C1026.80 hPa92.00 %7.60 °C 
13:30:008.70 °C1026.80 hPa92.00 %7.50 °C 
13:15:008.40 °C1026.70 hPa93.00 %7.30 °C 
13:00:007.40 °C1026.70 hPa92.00 %6.20 °C 
12:45:007.50 °C1026.70 hPa92.00 %6.30 °C 
12:30:007.60 °C1027.00 hPa93.00 %6.50 °C 
12:15:007.60 °C1026.80 hPa93.00 %6.50 °C 
12:00:007.90 °C1026.80 hPa93.00 %6.80 °C 
11:45:007.90 °C1026.80 hPa95.00 %7.10 °C 
11:30:007.60 °C1026.70 hPa94.00 %6.70 °C 
11:15:007.60 °C1026.70 hPa95.00 %6.90 °C 
11:00:007.60 °C1026.30 hPa96.00 %7.00 °C 
10:45:007.40 °C1026.40 hPa96.00 %6.80 °C 
10:30:006.90 °C1026.30 hPa96.00 %6.30 °C 
10:15:006.40 °C1026.10 hPa96.00 %5.80 °C 
10:00:005.80 °C1026.00 hPa97.00 %5.40 °C 
09:45:005.60 °C1025.90 hPa97.00 %5.20 °C 
09:30:005.40 °C1025.80 hPa96.00 %4.80 °C 
09:15:005.30 °C1025.70 hPa96.00 %4.70 °C 
09:00:005.20 °C1025.50 hPa96.00 %4.60 °C 
08:45:005.10 °C1025.50 hPa96.00 %4.50 °C 
08:30:004.80 °C1025.20 hPa96.00 %4.20 °C 
08:15:004.60 °C1025.20 hPa96.00 %4.00 °C 
08:00:004.40 °C1025.10 hPa96.00 %3.80 °C 
07:45:004.20 °C1024.80 hPa96.00 %3.60 °C 
07:30:003.90 °C1024.80 hPa96.00 %3.30 °C 
07:15:003.80 °C1024.80 hPa96.00 %3.20 °C 
07:00:003.50 °C1024.70 hPa96.00 %2.90 °C 
06:45:003.80 °C1024.40 hPa96.00 %3.20 °C 
06:30:004.00 °C1024.30 hPa96.00 %3.40 °C 
06:15:003.90 °C1024.60 hPa95.00 %3.20 °C 
06:00:004.20 °C1024.30 hPa95.00 %3.50 °C 
05:45:004.40 °C1024.50 hPa96.00 %3.80 °C 
05:30:004.40 °C1024.40 hPa96.00 %3.80 °C 
05:15:004.50 °C1024.40 hPa96.00 %3.90 °C 
05:00:004.50 °C1024.60 hPa96.00 %3.90 °C 
04:45:004.50 °C1024.30 hPa96.00 %3.90 °C 
04:30:004.40 °C1024.20 hPa96.00 %3.80 °C 
04:15:004.40 °C1024.00 hPa96.00 %3.80 °C 
04:00:004.60 °C1023.80 hPa96.00 %4.00 °C 
03:45:004.70 °C1023.80 hPa96.00 %4.10 °C 
03:30:004.80 °C1023.90 hPa96.00 %4.20 °C 
03:15:004.60 °C1024.10 hPa96.00 %4.00 °C 
03:00:004.50 °C1024.20 hPa96.00 %3.90 °C 
02:45:004.40 °C1024.30 hPa96.00 %3.80 °C 
02:30:004.40 °C1024.30 hPa96.00 %3.80 °C 
02:15:004.30 °C1024.30 hPa96.00 %3.70 °C 
02:00:004.30 °C1024.40 hPa96.00 %3.70 °C 
01:45:004.30 °C1024.40 hPa96.00 %3.70 °C 
01:30:004.40 °C1024.40 hPa96.00 %3.80 °C 
01:15:004.30 °C1024.40 hPa95.00 %3.60 °C 
01:00:004.40 °C1024.40 hPa95.00 %3.70 °C 
00:45:004.30 °C1024.60 hPa95.00 %3.60 °C 
00:30:004.30 °C1024.30 hPa95.00 %3.60 °C 
00:15:004.30 °C1024.20 hPa95.00 %3.60 °C 
00:00:004.30 °C1024.40 hPa95.00 %3.60 °C 

Permanenter Link zu dieser Seite: Wetter im Erzgebirge am 27.10.2016
Performance-Info: Die Erstellung der Seite / Statistik(en) / Tabelle(n) erforderte 5 Datenbankserver-Abfrage(n) und dauerte 97 Millisekunden. (Dieser Messwert ist von der Gesamt-Auslastung des Servers abhängig.)
Erzgebirge - Wetter | Erzgebirge - Wetter (Mobilgeräte) | Komplette Klimadatenbank